createdAt,value
2019-03-31T14:30:39.642Z,102722.05
2019-03-31T14:33:31.212Z,102714.30
2019-03-31T14:36:24.655Z,102712.73
2019-03-31T14:39:17.091Z,102707.17
2019-03-31T14:42:08.763Z,102714.56
2019-03-31T14:45:02.010Z,102717.06
2019-03-31T14:47:52.427Z,102717.93
2019-03-31T14:50:43.930Z,102713.39
2019-03-31T14:53:35.920Z,102705.70
2019-03-31T14:56:26.665Z,102706.48
2019-03-31T14:59:17.576Z,102710.06
2019-03-31T15:02:08.142Z,102713.57
2019-03-31T15:04:59.086Z,102718.91
2019-03-31T15:07:48.941Z,102714.22
2019-03-31T15:10:40.553Z,102704.03
2019-03-31T15:13:30.507Z,102718.70
2019-03-31T15:16:20.868Z,102715.39
2019-03-31T15:19:14.182Z,102713.09
2019-03-31T15:22:05.256Z,102716.44
2019-03-31T15:24:57.877Z,102708.09
2019-03-31T15:27:48.697Z,102714.38
2019-03-31T15:30:39.104Z,102713.12
2019-03-31T15:33:28.749Z,102705.84
2019-03-31T15:36:19.233Z,102707.78
2019-03-31T15:39:10.674Z,102710.79
2019-03-31T15:42:00.561Z,102713.70
2019-03-31T15:44:51.893Z,102715.14
2019-03-31T15:47:43.737Z,102708.59
2019-03-31T15:50:33.991Z,102709.85
2019-03-31T15:53:24.424Z,102712.67
2019-03-31T15:56:14.470Z,102710.35
2019-03-31T15:59:05.810Z,102711.81
2019-03-31T16:01:56.299Z,102715.58
2019-03-31T16:04:46.948Z,102702.38
2019-03-31T16:07:37.523Z,102704.14
2019-03-31T16:10:26.898Z,102700.92
2019-03-31T16:13:15.804Z,102704.14
2019-03-31T16:16:05.121Z,102702.38
2019-03-31T16:18:54.525Z,102712.86
2019-03-31T16:21:44.447Z,102699.48
2019-03-31T16:24:39.437Z,102712.48
2019-03-31T16:27:28.778Z,102712.05
2019-03-31T16:30:19.036Z,102717.97
2019-03-31T16:33:08.785Z,102713.71
2019-03-31T16:36:00.060Z,102718.11
2019-03-31T16:38:49.080Z,102721.97
2019-03-31T16:41:38.247Z,102719.25
2019-03-31T16:44:27.034Z,102721.45
2019-03-31T16:47:17.133Z,102716.08
2019-03-31T16:50:08.089Z,102724.48
2019-03-31T16:52:57.682Z,102723.45
2019-03-31T16:55:48.008Z,102729.63
2019-03-31T16:58:37.532Z,102727.30
2019-03-31T17:01:26.801Z,102735.56
2019-03-31T17:04:16.447Z,102740.20
2019-03-31T17:07:05.831Z,102750.14
2019-03-31T17:09:55.548Z,102742.20
2019-03-31T17:12:45.736Z,102745.17
2019-03-31T17:15:35.845Z,102754.65
2019-03-31T17:18:25.089Z,102741.55
2019-03-31T17:21:14.448Z,102748.74
2019-03-31T17:24:04.184Z,102745.93
2019-03-31T17:26:53.770Z,102750.28
2019-03-31T17:29:43.455Z,102746.55
2019-03-31T17:32:33.084Z,102748.17
2019-03-31T17:35:22.526Z,102755.97
2019-03-31T17:38:11.583Z,102750.75
2019-03-31T17:41:01.478Z,102756.32
2019-03-31T17:43:50.834Z,102747.70
2019-03-31T17:46:41.260Z,102751.34
2019-03-31T17:49:30.904Z,102756.54
2019-03-31T17:52:22.635Z,102758.34
2019-03-31T17:55:12.968Z,102756.22
2019-03-31T17:58:04.866Z,102748.67
2019-03-31T18:00:54.953Z,102756.52
2019-03-31T18:03:45.237Z,102756.63
2019-03-31T18:06:34.663Z,102765.66
2019-03-31T18:09:24.158Z,102760.33
2019-03-31T18:12:13.135Z,102765.38
2019-03-31T18:15:02.347Z,102765.33
2019-03-31T18:17:51.996Z,102769.88
2019-03-31T18:20:44.104Z,102773.11
2019-03-31T18:23:33.866Z,102776.20
2019-03-31T18:26:24.568Z,102774.92
2019-03-31T18:29:13.429Z,102777.59
2019-03-31T18:32:02.747Z,102777.55
2019-03-31T18:34:51.567Z,102787.38
2019-03-31T18:37:40.413Z,102782.45
2019-03-31T18:40:35.216Z,102781.06
2019-03-31T18:43:20.633Z,102789.93
2019-03-31T18:46:10.642Z,102795.29
2019-03-31T18:49:00.280Z,102798.77
2019-03-31T18:51:49.516Z,102804.90
2019-03-31T18:54:56.416Z,102799.84
2019-03-31T18:58:04.254Z,102808.23
2019-03-31T19:01:16.982Z,102813.52
2019-03-31T19:04:29.297Z,102800.91
2019-03-31T19:07:52.621Z,102813.75
2019-03-31T19:11:19.075Z,102820.38
2019-03-31T19:14:21.389Z,102821.95
2019-03-31T19:17:32.085Z,102833.89
2019-03-31T19:20:43.347Z,102836.83
2019-03-31T19:23:39.513Z,102831.77
2019-03-31T19:26:58.959Z,102834.69
2019-03-31T19:30:03.373Z,102843.87
2019-03-31T19:33:10.671Z,102839.59
2019-03-31T19:36:31.847Z,102841.17
2019-03-31T19:39:36.285Z,102845.41
2019-03-31T19:42:38.268Z,102853.63
2019-03-31T19:46:05.744Z,102846.69
2019-03-31T19:49:23.223Z,102855.34
2019-03-31T19:52:31.131Z,102850.66
2019-03-31T19:55:30.048Z,102852.18
2019-03-31T19:58:38.877Z,102863.52
2019-03-31T20:01:43.246Z,102876.16
2019-03-31T20:05:03.862Z,102871.34
2019-03-31T20:08:14.412Z,102871.94
2019-03-31T20:11:13.962Z,102875.70
2019-03-31T20:14:21.858Z,102876.30
2019-03-31T20:17:20.866Z,102872.41
2019-03-31T20:20:20.019Z,102872.48
2019-03-31T20:23:27.790Z,102874.84
2019-03-31T20:26:35.037Z,102870.12
2019-03-31T20:29:43.914Z,102875.10
2019-03-31T20:32:39.736Z,102874.34
2019-03-31T20:35:46.705Z,102888.24
2019-03-31T20:38:55.661Z,102887.45
2019-03-31T20:42:03.478Z,102883.57
2019-03-31T20:44:54.695Z,102892.12
2019-03-31T20:47:43.920Z,102886.47
2019-03-31T20:50:32.818Z,102883.44
2019-03-31T20:53:22.549Z,102892.85
2019-03-31T20:56:12.196Z,102892.05
2019-03-31T20:59:01.843Z,102889.45
2019-03-31T21:01:51.573Z,102888.20
2019-03-31T21:04:41.911Z,102891.41
2019-03-31T21:07:31.060Z,102896.34
2019-03-31T21:10:21.748Z,102895.97
2019-03-31T21:13:11.447Z,102905.38
2019-03-31T21:16:02.049Z,102900.55
2019-03-31T21:18:51.999Z,102911.29
2019-03-31T21:21:41.707Z,102914.93
2019-03-31T21:24:30.763Z,102924.75
2019-03-31T21:27:19.869Z,102917.23
2019-03-31T21:30:09.501Z,102913.76
2019-03-31T21:32:59.096Z,102920.02
2019-03-31T21:35:49.046Z,102922.28
2019-03-31T21:38:38.563Z,102927.24
2019-03-31T21:41:28.078Z,102919.30
2019-03-31T21:44:16.700Z,102922.91
2019-03-31T21:47:06.363Z,102928.29
2019-03-31T21:49:55.106Z,102930.98
2019-03-31T21:52:44.446Z,102923.93
2019-03-31T21:55:34.432Z,102921.77
2019-03-31T21:58:24.117Z,102927.56
2019-03-31T22:01:13.782Z,102922.31
2019-03-31T22:04:03.078Z,102924.99
2019-03-31T22:06:52.340Z,102927.64
2019-03-31T22:09:41.374Z,102923.23
2019-03-31T22:12:30.813Z,102926.83
2019-03-31T22:15:19.862Z,102923.78
2019-03-31T22:18:08.608Z,102930.45
2019-03-31T22:20:57.858Z,102930.48
2019-03-31T22:23:57.781Z,102928.73
2019-03-31T22:26:38.994Z,102931.45
2019-03-31T22:29:28.623Z,102934.55
2019-03-31T22:32:18.256Z,102934.15
2019-03-31T22:35:07.750Z,102931.51
2019-03-31T22:37:56.887Z,102932.00
2019-03-31T22:40:47.365Z,102930.66
2019-03-31T22:43:36.954Z,102932.47
2019-03-31T22:46:25.892Z,102929.84
2019-03-31T22:49:15.527Z,102928.50
2019-03-31T22:52:04.430Z,102931.65
2019-03-31T22:54:54.654Z,102930.34
2019-03-31T22:57:44.182Z,102929.00
2019-03-31T23:00:33.308Z,102929.91
2019-03-31T23:03:22.152Z,102926.83
2019-03-31T23:06:11.916Z,102920.21
2019-03-31T23:09:01.220Z,102922.00
2019-03-31T23:11:51.171Z,102924.69
2019-03-31T23:14:40.913Z,102919.82
2019-03-31T23:17:30.635Z,102920.70
2019-03-31T23:20:20.325Z,102921.61
2019-03-31T23:23:10.118Z,102922.95
2019-03-31T23:25:59.758Z,102916.75
2019-03-31T23:28:49.702Z,102918.98
2019-03-31T23:31:39.268Z,102922.11
2019-03-31T23:34:28.363Z,102915.02
2019-03-31T23:37:17.880Z,102913.25
2019-03-31T23:40:07.152Z,102907.95
2019-03-31T23:42:57.558Z,102911.95
2019-03-31T23:45:46.812Z,102909.73
2019-03-31T23:48:36.378Z,102907.09
2019-03-31T23:51:25.983Z,102904.87
2019-03-31T23:54:14.816Z,102902.22
2019-03-31T23:57:04.252Z,102907.09
2019-03-31T23:59:53.494Z,102907.55
